sensor_id;sensor_type;location;lat;lon;timestamp;P1;durP1;ratioP1;P2;durP2;ratioP2
78156;SDS011;67400;49.360;8.266;2023-04-25T00:00:33;3.42;;;2.30;;
78156;SDS011;67400;49.360;8.266;2023-04-25T00:01:53;4.40;;;2.63;;
78156;SDS011;67400;49.360;8.266;2023-04-25T00:03:13;3.38;;;2.30;;
78156;SDS011;67400;49.360;8.266;2023-04-25T00:04:32;3.50;;;2.33;;
78156;SDS011;67400;49.360;8.266;2023-04-25T00:05:52;3.92;;;2.13;;
78156;SDS011;67400;49.360;8.266;2023-04-25T00:07:11;2.92;;;2.03;;
78156;SDS011;67400;49.360;8.266;2023-04-25T00:08:31;3.33;;;2.13;;
78156;SDS011;67400;49.360;8.266;2023-04-25T00:09:50;3.42;;;2.40;;
78156;SDS011;67400;49.360;8.266;2023-04-25T00:11:10;2.60;;;2.20;;
78156;SDS011;67400;49.360;8.266;2023-04-25T00:12:30;3.90;;;2.58;;
78156;SDS011;67400;49.360;8.266;2023-04-25T00:13:49;3.50;;;2.20;;
78156;SDS011;67400;49.360;8.266;2023-04-25T00:15:09;3.88;;;2.45;;
78156;SDS011;67400;49.360;8.266;2023-04-25T00:16:29;4.40;;;2.40;;
78156;SDS011;67400;49.360;8.266;2023-04-25T00:17:52;3.45;;;2.30;;
78156;SDS011;67400;49.360;8.266;2023-04-25T00:19:11;3.67;;;2.55;;
78156;SDS011;67400;49.360;8.266;2023-04-25T00:20:32;4.72;;;2.40;;
78156;SDS011;67400;49.360;8.266;2023-04-25T00:21:52;3.78;;;2.53;;
78156;SDS011;67400;49.360;8.266;2023-04-25T00:23:12;3.70;;;2.20;;
78156;SDS011;67400;49.360;8.266;2023-04-25T00:24:36;3.00;;;2.30;;
78156;SDS011;67400;49.360;8.266;2023-04-25T00:25:56;4.40;;;2.67;;
78156;SDS011;67400;49.360;8.266;2023-04-25T00:27:15;4.40;;;2.42;;
78156;SDS011;67400;49.360;8.266;2023-04-25T00:28:35;3.33;;;2.25;;
78156;SDS011;67400;49.360;8.266;2023-04-25T00:29:54;4.32;;;2.40;;
78156;SDS011;67400;49.360;8.266;2023-04-25T00:31:14;4.05;;;2.30;;
78156;SDS011;67400;49.360;8.266;2023-04-25T00:32:34;3.55;;;2.47;;
78156;SDS011;67400;49.360;8.266;2023-04-25T00:33:53;3.45;;;2.38;;
78156;SDS011;67400;49.360;8.266;2023-04-25T00:35:13;4.00;;;2.33;;
78156;SDS011;67400;49.360;8.266;2023-04-25T00:36:33;5.03;;;2.40;;
78156;SDS011;67400;49.360;8.266;2023-04-25T00:37:53;3.08;;;2.22;;
78156;SDS011;67400;49.360;8.266;2023-04-25T00:39:13;7.30;;;2.80;;
78156;SDS011;67400;49.360;8.266;2023-04-25T00:40:33;3.25;;;2.03;;
78156;SDS011;67400;49.360;8.266;2023-04-25T00:41:53;5.00;;;2.30;;
78156;SDS011;67400;49.360;8.266;2023-04-25T00:43:13;3.28;;;2.40;;
78156;SDS011;67400;49.360;8.266;2023-04-25T00:44:33;3.50;;;2.35;;
78156;SDS011;67400;49.360;8.266;2023-04-25T00:45:54;3.45;;;2.20;;
78156;SDS011;67400;49.360;8.266;2023-04-25T00:47:17;3.17;;;2.33;;
78156;SDS011;67400;49.360;8.266;2023-04-25T00:48:36;3.67;;;2.47;;
78156;SDS011;67400;49.360;8.266;2023-04-25T00:49:56;4.32;;;2.70;;
78156;SDS011;67400;49.360;8.266;2023-04-25T00:51:16;5.75;;;2.97;;
78156;SDS011;67400;49.360;8.266;2023-04-25T00:52:38;6.32;;;2.67;;
78156;SDS011;67400;49.360;8.266;2023-04-25T00:53:59;3.65;;;2.60;;
78156;SDS011;67400;49.360;8.266;2023-04-25T00:55:20;3.95;;;2.58;;
78156;SDS011;67400;49.360;8.266;2023-04-25T00:56:39;3.67;;;2.60;;
78156;SDS011;67400;49.360;8.266;2023-04-25T00:57:59;3.75;;;2.55;;
78156;SDS011;67400;49.360;8.266;2023-04-25T00:59:19;3.17;;;2.38;;
78156;SDS011;67400;49.360;8.266;2023-04-25T01:00:40;3.60;;;2.38;;
78156;SDS011;67400;49.360;8.266;2023-04-25T01:02:00;3.30;;;2.17;;
78156;SDS011;67400;49.360;8.266;2023-04-25T01:03:19;3.45;;;2.58;;
78156;SDS011;67400;49.360;8.266;2023-04-25T01:04:40;2.72;;;2.13;;
78156;SDS011;67400;49.360;8.266;2023-04-25T01:05:59;3.30;;;2.67;;
78156;SDS011;67400;49.360;8.266;2023-04-25T01:07:19;4.65;;;2.90;;
78156;SDS011;67400;49.360;8.266;2023-04-25T01:08:39;4.30;;;2.85;;
78156;SDS011;67400;49.360;8.266;2023-04-25T01:09:59;3.38;;;2.42;;
78156;SDS011;67400;49.360;8.266;2023-04-25T01:11:19;3.92;;;2.55;;
78156;SDS011;67400;49.360;8.266;2023-04-25T01:12:39;4.32;;;2.58;;
78156;SDS011;67400;49.360;8.266;2023-04-25T01:13:58;4.28;;;2.85;;
78156;SDS011;67400;49.360;8.266;2023-04-25T01:15:19;5.05;;;3.30;;
78156;SDS011;67400;49.360;8.266;2023-04-25T01:16:38;5.03;;;2.90;;
78156;SDS011;67400;49.360;8.266;2023-04-25T01:17:58;5.45;;;2.95;;
78156;SDS011;67400;49.360;8.266;2023-04-25T01:19:19;5.30;;;3.10;;
78156;SDS011;67400;49.360;8.266;2023-04-25T01:20:38;4.03;;;2.83;;
78156;SDS011;67400;49.360;8.266;2023-04-25T01:22:00;6.93;;;3.25;;
78156;SDS011;67400;49.360;8.266;2023-04-25T01:23:21;4.60;;;3.10;;
78156;SDS011;67400;49.360;8.266;2023-04-25T01:24:41;5.60;;;3.45;;
78156;SDS011;67400;49.360;8.266;2023-04-25T01:26:01;5.57;;;3.15;;
78156;SDS011;67400;49.360;8.266;2023-04-25T01:27:21;5.47;;;3.05;;
78156;SDS011;67400;49.360;8.266;2023-04-25T01:28:41;4.88;;;3.28;;
78156;SDS011;67400;49.360;8.266;2023-04-25T01:30:03;4.20;;;2.85;;
78156;SDS011;67400;49.360;8.266;2023-04-25T01:31:24;6.45;;;2.83;;
78156;SDS011;67400;49.360;8.266;2023-04-25T01:32:44;6.40;;;3.15;;
78156;SDS011;67400;49.360;8.266;2023-04-25T01:34:05;5.35;;;3.72;;
78156;SDS011;67400;49.360;8.266;2023-04-25T01:35:24;3.22;;;2.70;;
78156;SDS011;67400;49.360;8.266;2023-04-25T01:36:49;4.95;;;2.95;;
78156;SDS011;67400;49.360;8.266;2023-04-25T01:38:09;4.93;;;3.20;;
78156;SDS011;67400;49.360;8.266;2023-04-25T01:39:29;5.28;;;3.78;;
78156;SDS011;67400;49.360;8.266;2023-04-25T01:40:49;7.53;;;3.58;;
78156;SDS011;67400;49.360;8.266;2023-04-25T01:42:12;6.35;;;3.80;;
78156;SDS011;67400;49.360;8.266;2023-04-25T01:43:32;5.03;;;3.35;;
78156;SDS011;67400;49.360;8.266;2023-04-25T01:44:52;6.38;;;3.85;;
78156;SDS011;67400;49.360;8.266;2023-04-25T01:46:12;5.97;;;3.90;;
78156;SDS011;67400;49.360;8.266;2023-04-25T01:47:32;5.90;;;3.40;;
78156;SDS011;67400;49.360;8.266;2023-04-25T01:48:53;6.47;;;3.78;;
78156;SDS011;67400;49.360;8.266;2023-04-25T01:50:14;4.80;;;3.50;;
78156;SDS011;67400;49.360;8.266;2023-04-25T01:51:34;5.63;;;3.25;;
78156;SDS011;67400;49.360;8.266;2023-04-25T01:52:54;5.32;;;3.20;;
78156;SDS011;67400;49.360;8.266;2023-04-25T01:54:13;7.03;;;3.80;;
78156;SDS011;67400;49.360;8.266;2023-04-25T01:55:33;5.57;;;3.80;;
78156;SDS011;67400;49.360;8.266;2023-04-25T01:57:00;5.05;;;3.28;;
78156;SDS011;67400;49.360;8.266;2023-04-25T01:58:21;6.80;;;3.47;;
78156;SDS011;67400;49.360;8.266;2023-04-25T02:00:16;6.22;;;4.30;;
78156;SDS011;67400;49.360;8.266;2023-04-25T02:01:36;6.57;;;4.45;;
78156;SDS011;67400;49.360;8.266;2023-04-25T02:03:08;5.90;;;3.30;;
78156;SDS011;67400;49.360;8.266;2023-04-25T02:04:28;7.32;;;4.25;;
78156;SDS011;67400;49.360;8.266;2023-04-25T02:05:48;6.68;;;4.15;;
78156;SDS011;67400;49.360;8.266;2023-04-25T02:07:07;5.78;;;4.13;;
78156;SDS011;67400;49.360;8.266;2023-04-25T02:08:39;7.40;;;4.43;;
78156;SDS011;67400;49.360;8.266;2023-04-25T02:09:59;9.85;;;4.30;;
78156;SDS011;67400;49.360;8.266;2023-04-25T02:11:22;8.68;;;4.30;;
78156;SDS011;67400;49.360;8.266;2023-04-25T02:13:04;6.82;;;4.18;;
78156;SDS011;67400;49.360;8.266;2023-04-25T02:14:48;6.15;;;4.10;;
78156;SDS011;67400;49.360;8.266;2023-04-25T02:16:14;8.02;;;4.07;;
78156;SDS011;67400;49.360;8.266;2023-04-25T02:17:34;5.18;;;3.97;;
78156;SDS011;67400;49.360;8.266;2023-04-25T02:18:54;6.47;;;3.97;;
78156;SDS011;67400;49.360;8.266;2023-04-25T02:20:13;5.30;;;3.60;;
78156;SDS011;67400;49.360;8.266;2023-04-25T02:21:34;7.82;;;4.13;;
78156;SDS011;67400;49.360;8.266;2023-04-25T02:22:54;6.63;;;4.00;;
78156;SDS011;67400;49.360;8.266;2023-04-25T02:24:13;4.53;;;3.50;;
78156;SDS011;67400;49.360;8.266;2023-04-25T02:25:33;5.30;;;3.53;;
78156;SDS011;67400;49.360;8.266;2023-04-25T02:26:53;7.28;;;4.10;;
78156;SDS011;67400;49.360;8.266;2023-04-25T02:28:14;6.93;;;4.15;;
78156;SDS011;67400;49.360;8.266;2023-04-25T02:29:34;5.50;;;3.58;;
78156;SDS011;67400;49.360;8.266;2023-04-25T02:30:54;6.45;;;3.30;;
78156;SDS011;67400;49.360;8.266;2023-04-25T02:32:13;5.18;;;3.65;;
78156;SDS011;67400;49.360;8.266;2023-04-25T02:33:33;4.72;;;3.50;;
78156;SDS011;67400;49.360;8.266;2023-04-25T02:34:53;7.25;;;3.60;;
78156;SDS011;67400;49.360;8.266;2023-04-25T02:36:12;4.55;;;3.40;;
78156;SDS011;67400;49.360;8.266;2023-04-25T02:37:34;4.53;;;3.20;;
78156;SDS011;67400;49.360;8.266;2023-04-25T02:38:53;4.35;;;3.20;;
78156;SDS011;67400;49.360;8.266;2023-04-25T02:40:13;7.20;;;3.60;;
78156;SDS011;67400;49.360;8.266;2023-04-25T02:41:33;4.47;;;3.30;;
78156;SDS011;67400;49.360;8.266;2023-04-25T02:42:53;4.90;;;3.30;;
78156;SDS011;67400;49.360;8.266;2023-04-25T02:44:12;4.10;;;3.00;;
78156;SDS011;67400;49.360;8.266;2023-04-25T02:45:32;6.25;;;3.88;;
78156;SDS011;67400;49.360;8.266;2023-04-25T02:46:52;4.57;;;3.33;;
78156;SDS011;67400;49.360;8.266;2023-04-25T02:48:12;5.88;;;3.38;;
78156;SDS011;67400;49.360;8.266;2023-04-25T02:49:32;8.20;;;4.00;;
78156;SDS011;67400;49.360;8.266;2023-04-25T02:50:51;5.28;;;3.70;;
78156;SDS011;67400;49.360;8.266;2023-04-25T02:52:11;5.43;;;3.35;;
78156;SDS011;67400;49.360;8.266;2023-04-25T02:53:31;4.72;;;3.47;;
78156;SDS011;67400;49.360;8.266;2023-04-25T02:54:51;5.68;;;3.55;;
78156;SDS011;67400;49.360;8.266;2023-04-25T02:56:11;7.22;;;3.47;;
78156;SDS011;67400;49.360;8.266;2023-04-25T02:57:31;5.78;;;3.95;;
78156;SDS011;67400;49.360;8.266;2023-04-25T02:58:50;5.40;;;3.33;;
78156;SDS011;67400;49.360;8.266;2023-04-25T03:00:10;5.93;;;3.60;;
78156;SDS011;67400;49.360;8.266;2023-04-25T03:01:30;5.05;;;3.38;;
78156;SDS011;67400;49.360;8.266;2023-04-25T03:02:50;4.97;;;3.58;;
78156;SDS011;67400;49.360;8.266;2023-04-25T03:04:10;5.03;;;3.15;;
78156;SDS011;67400;49.360;8.266;2023-04-25T03:05:30;5.90;;;3.70;;
78156;SDS011;67400;49.360;8.266;2023-04-25T03:06:50;5.32;;;3.70;;
78156;SDS011;67400;49.360;8.266;2023-04-25T03:08:12;6.25;;;3.53;;
78156;SDS011;67400;49.360;8.266;2023-04-25T03:09:32;5.18;;;3.42;;
78156;SDS011;67400;49.360;8.266;2023-04-25T03:10:52;4.88;;;3.35;;
78156;SDS011;67400;49.360;8.266;2023-04-25T03:12:15;5.90;;;4.15;;
78156;SDS011;67400;49.360;8.266;2023-04-25T03:13:35;5.18;;;3.33;;
78156;SDS011;67400;49.360;8.266;2023-04-25T03:14:54;6.80;;;3.72;;
78156;SDS011;67400;49.360;8.266;2023-04-25T03:16:14;6.43;;;4.00;;
78156;SDS011;67400;49.360;8.266;2023-04-25T03:17:34;7.97;;;4.43;;
78156;SDS011;67400;49.360;8.266;2023-04-25T03:18:54;8.68;;;4.72;;
78156;SDS011;67400;49.360;8.266;2023-04-25T03:20:13;8.52;;;4.72;;
78156;SDS011;67400;49.360;8.266;2023-04-25T03:21:34;11.27;;;4.93;;
78156;SDS011;67400;49.360;8.266;2023-04-25T03:22:54;9.18;;;4.60;;
78156;SDS011;67400;49.360;8.266;2023-04-25T03:24:14;13.32;;;5.65;;
78156;SDS011;67400;49.360;8.266;2023-04-25T03:25:33;11.55;;;5.13;;
78156;SDS011;67400;49.360;8.266;2023-04-25T03:26:53;11.85;;;5.03;;
78156;SDS011;67400;49.360;8.266;2023-04-25T03:28:13;11.60;;;4.80;;
78156;SDS011;67400;49.360;8.266;2023-04-25T03:29:33;9.60;;;4.53;;
78156;SDS011;67400;49.360;8.266;2023-04-25T03:30:56;8.05;;;4.00;;
78156;SDS011;67400;49.360;8.266;2023-04-25T03:32:17;7.85;;;4.10;;
78156;SDS011;67400;49.360;8.266;2023-04-25T03:33:36;7.75;;;4.63;;
78156;SDS011;67400;49.360;8.266;2023-04-25T03:34:56;6.35;;;3.88;;
78156;SDS011;67400;49.360;8.266;2023-04-25T03:36:18;8.10;;;4.78;;
78156;SDS011;67400;49.360;8.266;2023-04-25T03:37:37;8.98;;;4.93;;
78156;SDS011;67400;49.360;8.266;2023-04-25T03:38:59;7.65;;;4.63;;
78156;SDS011;67400;49.360;8.266;2023-04-25T03:40:21;6.63;;;3.83;;
78156;SDS011;67400;49.360;8.266;2023-04-25T03:41:59;5.93;;;4.00;;
78156;SDS011;67400;49.360;8.266;2023-04-25T03:43:21;4.93;;;3.60;;
78156;SDS011;67400;49.360;8.266;2023-04-25T03:44:49;6.05;;;4.03;;
78156;SDS011;67400;49.360;8.266;2023-04-25T03:46:09;5.78;;;3.70;;
78156;SDS011;67400;49.360;8.266;2023-04-25T03:47:29;6.18;;;3.88;;
78156;SDS011;67400;49.360;8.266;2023-04-25T03:48:50;6.75;;;3.72;;
78156;SDS011;67400;49.360;8.266;2023-04-25T03:50:14;5.82;;;3.75;;
78156;SDS011;67400;49.360;8.266;2023-04-25T03:51:34;6.70;;;4.10;;
78156;SDS011;67400;49.360;8.266;2023-04-25T03:52:55;8.27;;;4.43;;
78156;SDS011;67400;49.360;8.266;2023-04-25T03:54:16;5.88;;;3.78;;
78156;SDS011;67400;49.360;8.266;2023-04-25T03:55:47;5.95;;;3.95;;
78156;SDS011;67400;49.360;8.266;2023-04-25T03:57:06;6.45;;;3.70;;
78156;SDS011;67400;49.360;8.266;2023-04-25T03:58:30;6.47;;;4.20;;
78156;SDS011;67400;49.360;8.266;2023-04-25T03:59:49;6.45;;;4.35;;
78156;SDS011;67400;49.360;8.266;2023-04-25T04:01:09;5.82;;;4.10;;
78156;SDS011;67400;49.360;8.266;2023-04-25T04:02:32;6.45;;;4.00;;
78156;SDS011;67400;49.360;8.266;2023-04-25T04:03:53;8.88;;;4.53;;
78156;SDS011;67400;49.360;8.266;2023-04-25T04:05:13;9.23;;;4.13;;
78156;SDS011;67400;49.360;8.266;2023-04-25T04:06:39;6.28;;;4.28;;
78156;SDS011;67400;49.360;8.266;2023-04-25T04:08:06;7.55;;;4.05;;
78156;SDS011;67400;49.360;8.266;2023-04-25T04:09:26;5.70;;;4.13;;
78156;SDS011;67400;49.360;8.266;2023-04-25T04:10:47;6.80;;;4.05;;
78156;SDS011;67400;49.360;8.266;2023-04-25T04:12:07;5.85;;;4.05;;
78156;SDS011;67400;49.360;8.266;2023-04-25T04:13:28;7.85;;;5.03;;
78156;SDS011;67400;49.360;8.266;2023-04-25T04:14:48;6.90;;;4.35;;
78156;SDS011;67400;49.360;8.266;2023-04-25T04:16:08;8.40;;;4.20;;
78156;SDS011;67400;49.360;8.266;2023-04-25T04:17:28;6.03;;;4.20;;
78156;SDS011;67400;49.360;8.266;2023-04-25T04:18:47;6.88;;;4.40;;
78156;SDS011;67400;49.360;8.266;2023-04-25T04:20:07;7.63;;;4.28;;
78156;SDS011;67400;49.360;8.266;2023-04-25T04:21:28;8.70;;;4.50;;
78156;SDS011;67400;49.360;8.266;2023-04-25T04:22:48;7.70;;;4.30;;
78156;SDS011;67400;49.360;8.266;2023-04-25T04:24:09;6.80;;;4.20;;
78156;SDS011;67400;49.360;8.266;2023-04-25T04:25:40;7.60;;;4.03;;
78156;SDS011;67400;49.360;8.266;2023-04-25T04:27:21;6.15;;;3.90;;
78156;SDS011;67400;49.360;8.266;2023-04-25T04:29:01;5.68;;;3.92;;
78156;SDS011;67400;49.360;8.266;2023-04-25T04:32:00;8.60;;;4.63;;
78156;SDS011;67400;49.360;8.266;2023-04-25T04:33:21;9.27;;;4.32;;
78156;SDS011;67400;49.360;8.266;2023-04-25T04:34:47;7.32;;;4.32;;
78156;SDS011;67400;49.360;8.266;2023-04-25T04:36:09;7.30;;;4.15;;
78156;SDS011;67400;49.360;8.266;2023-04-25T04:37:30;7.78;;;4.07;;
78156;SDS011;67400;49.360;8.266;2023-04-25T04:38:51;5.40;;;3.80;;
78156;SDS011;67400;49.360;8.266;2023-04-25T04:40:25;7.32;;;4.03;;
78156;SDS011;67400;49.360;8.266;2023-04-25T04:41:54;6.30;;;4.13;;
78156;SDS011;67400;49.360;8.266;2023-04-25T04:43:26;5.38;;;4.07;;
78156;SDS011;67400;49.360;8.266;2023-04-25T04:45:19;6.47;;;4.28;;
78156;SDS011;67400;49.360;8.266;2023-04-25T04:46:49;7.60;;;4.28;;
78156;SDS011;67400;49.360;8.266;2023-04-25T04:48:32;7.65;;;4.40;;
78156;SDS011;67400;49.360;8.266;2023-04-25T04:50:11;7.30;;;4.38;;
78156;SDS011;67400;49.360;8.266;2023-04-25T04:51:49;6.82;;;4.57;;
78156;SDS011;67400;49.360;8.266;2023-04-25T04:53:44;7.47;;;4.82;;
78156;SDS011;67400;49.360;8.266;2023-04-25T04:55:13;6.63;;;4.50;;
78156;SDS011;67400;49.360;8.266;2023-04-25T04:56:49;6.82;;;4.30;;
78156;SDS011;67400;49.360;8.266;2023-04-25T04:58:21;7.82;;;4.60;;
78156;SDS011;67400;49.360;8.266;2023-04-25T05:00:17;6.53;;;4.25;;
78156;SDS011;67400;49.360;8.266;2023-04-25T05:02:04;8.73;;;4.47;;
78156;SDS011;67400;49.360;8.266;2023-04-25T05:03:53;6.80;;;4.55;;
78156;SDS011;67400;49.360;8.266;2023-04-25T05:05:45;7.20;;;4.60;;
78156;SDS011;67400;49.360;8.266;2023-04-25T05:07:28;8.18;;;5.65;;
78156;SDS011;67400;49.360;8.266;2023-04-25T05:08:53;7.35;;;5.00;;
78156;SDS011;67400;49.360;8.266;2023-04-25T05:10:37;6.63;;;4.18;;
78156;SDS011;67400;49.360;8.266;2023-04-25T05:12:06;6.97;;;4.35;;
78156;SDS011;67400;49.360;8.266;2023-04-25T05:13:46;8.65;;;4.78;;
78156;SDS011;67400;49.360;8.266;2023-04-25T05:15:18;7.63;;;3.72;;
78156;SDS011;67400;49.360;8.266;2023-04-25T05:16:44;8.88;;;4.55;;
78156;SDS011;67400;49.360;8.266;2023-04-25T05:18:14;7.65;;;4.47;;
78156;SDS011;67400;49.360;8.266;2023-04-25T05:19:39;10.15;;;4.53;;
78156;SDS011;67400;49.360;8.266;2023-04-25T05:21:09;8.90;;;4.80;;
78156;SDS011;67400;49.360;8.266;2023-04-25T05:22:44;6.57;;;4.30;;
78156;SDS011;67400;49.360;8.266;2023-04-25T05:24:14;7.28;;;4.40;;
78156;SDS011;67400;49.360;8.266;2023-04-25T05:25:37;8.02;;;5.18;;
78156;SDS011;67400;49.360;8.266;2023-04-25T05:27:12;7.10;;;4.45;;
78156;SDS011;67400;49.360;8.266;2023-04-25T05:28:51;7.65;;;4.35;;
78156;SDS011;67400;49.360;8.266;2023-04-25T05:30:36;7.25;;;4.78;;
78156;SDS011;67400;49.360;8.266;2023-04-25T05:32:07;9.10;;;5.32;;
78156;SDS011;67400;49.360;8.266;2023-04-25T05:33:28;5.68;;;3.97;;
78156;SDS011;67400;49.360;8.266;2023-04-25T05:34:47;6.82;;;4.25;;
78156;SDS011;67400;49.360;8.266;2023-04-25T05:36:15;7.93;;;4.35;;
78156;SDS011;67400;49.360;8.266;2023-04-25T05:37:34;7.72;;;4.47;;
78156;SDS011;67400;49.360;8.266;2023-04-25T05:39:17;6.53;;;4.45;;
78156;SDS011;67400;49.360;8.266;2023-04-25T05:40:55;9.70;;;4.85;;
78156;SDS011;67400;49.360;8.266;2023-04-25T05:42:38;7.30;;;4.95;;
78156;SDS011;67400;49.360;8.266;2023-04-25T05:44:17;8.02;;;5.15;;
78156;SDS011;67400;49.360;8.266;2023-04-25T05:47:37;9.02;;;4.10;;
78156;SDS011;67400;49.360;8.266;2023-04-25T05:49:02;9.73;;;4.88;;
78156;SDS011;67400;49.360;8.266;2023-04-25T05:50:41;8.85;;;5.18;;
78156;SDS011;67400;49.360;8.266;2023-04-25T05:52:17;9.18;;;6.43;;
78156;SDS011;67400;49.360;8.266;2023-04-25T05:53:44;9.20;;;5.15;;
78156;SDS011;67400;49.360;8.266;2023-04-25T05:55:05;8.23;;;5.00;;
78156;SDS011;67400;49.360;8.266;2023-04-25T05:56:25;8.75;;;5.20;;
78156;SDS011;67400;49.360;8.266;2023-04-25T05:57:46;8.60;;;4.80;;
78156;SDS011;67400;49.360;8.266;2023-04-25T05:59:06;7.70;;;5.03;;
78156;SDS011;67400;49.360;8.266;2023-04-25T06:00:26;8.55;;;5.70;;
78156;SDS011;67400;49.360;8.266;2023-04-25T06:01:45;8.57;;;5.70;;
78156;SDS011;67400;49.360;8.266;2023-04-25T06:03:05;9.30;;;4.75;;
78156;SDS011;67400;49.360;8.266;2023-04-25T06:04:28;8.73;;;5.85;;
78156;SDS011;67400;49.360;8.266;2023-04-25T06:05:48;9.00;;;5.38;;
78156;SDS011;67400;49.360;8.266;2023-04-25T06:07:07;10.38;;;5.55;;
78156;SDS011;67400;49.360;8.266;2023-04-25T06:08:28;7.78;;;5.22;;
78156;SDS011;67400;49.360;8.266;2023-04-25T06:09:47;9.63;;;5.88;;
78156;SDS011;67400;49.360;8.266;2023-04-25T06:11:08;10.95;;;5.30;;
78156;SDS011;67400;49.360;8.266;2023-04-25T06:12:30;9.68;;;5.47;;
78156;SDS011;67400;49.360;8.266;2023-04-25T06:13:49;9.50;;;5.28;;
78156;SDS011;67400;49.360;8.266;2023-04-25T06:15:10;10.40;;;5.65;;
78156;SDS011;67400;49.360;8.266;2023-04-25T06:16:29;11.88;;;6.13;;
78156;SDS011;67400;49.360;8.266;2023-04-25T06:17:49;12.00;;;6.20;;
78156;SDS011;67400;49.360;8.266;2023-04-25T06:19:09;9.13;;;5.63;;
78156;SDS011;67400;49.360;8.266;2023-04-25T06:20:28;10.05;;;5.43;;
78156;SDS011;67400;49.360;8.266;2023-04-25T06:21:51;10.23;;;5.50;;
78156;SDS011;67400;49.360;8.266;2023-04-25T06:23:11;8.00;;;5.15;;
78156;SDS011;67400;49.360;8.266;2023-04-25T06:24:39;8.93;;;5.53;;
78156;SDS011;67400;49.360;8.266;2023-04-25T06:25:58;10.93;;;6.28;;
78156;SDS011;67400;49.360;8.266;2023-04-25T06:27:20;11.63;;;5.93;;
78156;SDS011;67400;49.360;8.266;2023-04-25T06:28:40;8.27;;;5.22;;
78156;SDS011;67400;49.360;8.266;2023-04-25T06:30:01;10.45;;;6.10;;
78156;SDS011;67400;49.360;8.266;2023-04-25T06:31:22;8.93;;;5.40;;
78156;SDS011;67400;49.360;8.266;2023-04-25T06:32:42;9.60;;;5.72;;
78156;SDS011;67400;49.360;8.266;2023-04-25T06:34:02;9.50;;;5.50;;
78156;SDS011;67400;49.360;8.266;2023-04-25T06:35:24;10.52;;;5.47;;
78156;SDS011;67400;49.360;8.266;2023-04-25T06:36:45;9.52;;;5.85;;
78156;SDS011;67400;49.360;8.266;2023-04-25T06:38:07;8.95;;;5.47;;
78156;SDS011;67400;49.360;8.266;2023-04-25T06:39:28;9.60;;;5.95;;
78156;SDS011;67400;49.360;8.266;2023-04-25T06:40:48;10.43;;;6.75;;
78156;SDS011;67400;49.360;8.266;2023-04-25T06:42:09;13.82;;;7.93;;
78156;SDS011;67400;49.360;8.266;2023-04-25T06:43:44;23.52;;;11.23;;
78156;SDS011;67400;49.360;8.266;2023-04-25T06:45:16;21.13;;;10.40;;
78156;SDS011;67400;49.360;8.266;2023-04-25T06:46:36;20.20;;;9.88;;
78156;SDS011;67400;49.360;8.266;2023-04-25T06:47:57;14.20;;;7.43;;
78156;SDS011;67400;49.360;8.266;2023-04-25T06:49:17;12.43;;;7.25;;
78156;SDS011;67400;49.360;8.266;2023-04-25T06:50:37;16.88;;;9.18;;
78156;SDS011;67400;49.360;8.266;2023-04-25T06:51:57;25.10;;;11.13;;
78156;SDS011;67400;49.360;8.266;2023-04-25T06:53:16;32.20;;;12.75;;
78156;SDS011;67400;49.360;8.266;2023-04-25T06:54:39;23.38;;;11.43;;
78156;SDS011;67400;49.360;8.266;2023-04-25T06:56:11;44.92;;;19.13;;
78156;SDS011;67400;49.360;8.266;2023-04-25T06:57:43;19.33;;;11.20;;
78156;SDS011;67400;49.360;8.266;2023-04-25T06:59:22;13.93;;;7.68;;
78156;SDS011;67400;49.360;8.266;2023-04-25T07:00:43;11.25;;;6.55;;
78156;SDS011;67400;49.360;8.266;2023-04-25T07:02:03;32.78;;;16.15;;
78156;SDS011;67400;49.360;8.266;2023-04-25T07:03:23;16.20;;;9.65;;
78156;SDS011;67400;49.360;8.266;2023-04-25T07:04:47;12.18;;;7.75;;
78156;SDS011;67400;49.360;8.266;2023-04-25T07:06:07;11.65;;;6.60;;
78156;SDS011;67400;49.360;8.266;2023-04-25T07:07:27;11.63;;;6.82;;
78156;SDS011;67400;49.360;8.266;2023-04-25T07:08:50;11.57;;;6.75;;
78156;SDS011;67400;49.360;8.266;2023-04-25T07:10:10;9.82;;;6.22;;
78156;SDS011;67400;49.360;8.266;2023-04-25T07:11:30;12.13;;;6.68;;
78156;SDS011;67400;49.360;8.266;2023-04-25T07:12:49;13.55;;;7.63;;
78156;SDS011;67400;49.360;8.266;2023-04-25T07:14:09;8.85;;;6.32;;
78156;SDS011;67400;49.360;8.266;2023-04-25T07:15:29;14.20;;;7.22;;
78156;SDS011;67400;49.360;8.266;2023-04-25T07:16:50;13.23;;;7.90;;
78156;SDS011;67400;49.360;8.266;2023-04-25T07:18:10;17.30;;;8.38;;
78156;SDS011;67400;49.360;8.266;2023-04-25T07:19:30;12.88;;;7.35;;
78156;SDS011;67400;49.360;8.266;2023-04-25T07:20:52;17.92;;;6.78;;
78156;SDS011;67400;49.360;8.266;2023-04-25T07:22:12;11.57;;;6.28;;
78156;SDS011;67400;49.360;8.266;2023-04-25T07:23:33;13.45;;;6.57;;
78156;SDS011;67400;49.360;8.266;2023-04-25T07:25:00;13.40;;;6.28;;
78156;SDS011;67400;49.360;8.266;2023-04-25T07:26:21;10.98;;;6.07;;
78156;SDS011;67400;49.360;8.266;2023-04-25T07:28:01;12.93;;;6.65;;
78156;SDS011;67400;49.360;8.266;2023-04-25T07:29:21;10.85;;;5.75;;
78156;SDS011;67400;49.360;8.266;2023-04-25T07:30:40;14.85;;;6.35;;
78156;SDS011;67400;49.360;8.266;2023-04-25T07:32:00;13.27;;;6.40;;
78156;SDS011;67400;49.360;8.266;2023-04-25T07:33:19;12.90;;;7.13;;
78156;SDS011;67400;49.360;8.266;2023-04-25T07:34:39;14.63;;;6.97;;
78156;SDS011;67400;49.360;8.266;2023-04-25T07:36:01;14.98;;;7.25;;
78156;SDS011;67400;49.360;8.266;2023-04-25T07:37:21;13.18;;;7.47;;
78156;SDS011;67400;49.360;8.266;2023-04-25T07:38:53;14.98;;;7.32;;
78156;SDS011;67400;49.360;8.266;2023-04-25T07:40:14;16.40;;;7.90;;
78156;SDS011;67400;49.360;8.266;2023-04-25T07:41:40;16.13;;;7.45;;
78156;SDS011;67400;49.360;8.266;2023-04-25T07:43:04;16.00;;;7.90;;
78156;SDS011;67400;49.360;8.266;2023-04-25T07:44:31;18.10;;;7.90;;
78156;SDS011;67400;49.360;8.266;2023-04-25T07:45:51;14.70;;;7.50;;
78156;SDS011;67400;49.360;8.266;2023-04-25T07:47:12;16.13;;;7.35;;
78156;SDS011;67400;49.360;8.266;2023-04-25T07:48:33;15.18;;;6.80;;
78156;SDS011;67400;49.360;8.266;2023-04-25T07:49:54;18.55;;;7.15;;
78156;SDS011;67400;49.360;8.266;2023-04-25T07:51:16;19.20;;;7.88;;
78156;SDS011;67400;49.360;8.266;2023-04-25T07:52:38;16.05;;;6.63;;
78156;SDS011;67400;49.360;8.266;2023-04-25T07:54:12;13.02;;;6.63;;
78156;SDS011;67400;49.360;8.266;2023-04-25T07:55:36;15.15;;;7.22;;
78156;SDS011;67400;49.360;8.266;2023-04-25T07:57:07;14.52;;;6.75;;
78156;SDS011;67400;49.360;8.266;2023-04-25T07:58:27;15.10;;;6.90;;
78156;SDS011;67400;49.360;8.266;2023-04-25T07:59:51;15.60;;;7.90;;
78156;SDS011;67400;49.360;8.266;2023-04-25T08:01:11;20.65;;;7.57;;
78156;SDS011;67400;49.360;8.266;2023-04-25T08:02:52;16.95;;;7.60;;
78156;SDS011;67400;49.360;8.266;2023-04-25T08:04:12;15.48;;;7.93;;
78156;SDS011;67400;49.360;8.266;2023-04-25T08:05:46;14.18;;;7.47;;
78156;SDS011;67400;49.360;8.266;2023-04-25T08:07:06;21.95;;;8.02;;
78156;SDS011;67400;49.360;8.266;2023-04-25T08:08:41;13.30;;;6.95;;
78156;SDS011;67400;49.360;8.266;2023-04-25T08:10:04;15.68;;;6.65;;
78156;SDS011;67400;49.360;8.266;2023-04-25T08:11:26;18.45;;;6.13;;
78156;SDS011;67400;49.360;8.266;2023-04-25T08:12:46;13.38;;;6.13;;
78156;SDS011;67400;49.360;8.266;2023-04-25T08:14:06;10.07;;;5.05;;
78156;SDS011;67400;49.360;8.266;2023-04-25T08:15:27;12.68;;;5.35;;
78156;SDS011;67400;49.360;8.266;2023-04-25T08:16:46;12.98;;;6.00;;
78156;SDS011;67400;49.360;8.266;2023-04-25T08:18:06;16.85;;;6.72;;
78156;SDS011;67400;49.360;8.266;2023-04-25T08:19:26;17.05;;;6.55;;
78156;SDS011;67400;49.360;8.266;2023-04-25T08:20:46;18.30;;;6.63;;
78156;SDS011;67400;49.360;8.266;2023-04-25T08:22:07;19.58;;;6.20;;
78156;SDS011;67400;49.360;8.266;2023-04-25T08:23:38;18.45;;;5.72;;